Terminal Aerodrome Forecast
Issued by NWS

Home | Current Version | Previous Version | Text Only | Print | Product List | Glossary Off
Versions: 1 2 3 4 5 6 7 8 9 10 11 12 13 14 15 16 17 18 19 20 21 22 23 24 25 26 27

000
FTUS41 KCLE 031300 AAA
TAFFDY
TAF AMD
KFDY 031325Z 0313/0412 13008KT P6SM BKN050 OVC070
      TEMPO 0314/0316 5SM -FZRA BKN035 OVC060
     FM031600 14010KT 4SM -FZRAPL BR BKN015 OVC050
     FM031800 20015KT 2SM -RA BR BKN005 OVC015 WS020/22045KT
     FM040000 25015G25KT 6SM BR SCT005 OVC015
     FM040900 29012KT P6SM BKN015=

USA.gov is the U.S. government's official web portal to all federal, state and local government web resources and services.